createdAt,value
2022-09-04T00:02:30.773Z,21.40
2022-09-04T00:05:03.745Z,21.40
2022-09-04T00:07:50.718Z,21.40
2022-09-04T00:10:47.360Z,21.30
2022-09-04T00:13:22.782Z,21.30
2022-09-04T00:15:53.949Z,21.30
2022-09-04T00:18:49.202Z,21.20
2022-09-04T00:21:39.684Z,21.20
2022-09-04T00:24:15.106Z,21.20
2022-09-04T00:26:56.599Z,21.10
2022-09-04T00:29:44.964Z,21.10
2022-09-04T00:32:52.584Z,21.10
2022-09-04T00:35:44.563Z,21.00
2022-09-04T00:38:16.819Z,21.00
2022-09-04T00:41:11.033Z,20.90
2022-09-04T00:43:58.665Z,20.90
2022-09-04T00:46:30.257Z,20.90
2022-09-04T00:49:02.784Z,20.80
2022-09-04T00:51:53.425Z,20.80
2022-09-04T00:54:57.476Z,20.80
2022-09-04T00:57:48.389Z,20.80
2022-09-04T01:00:19.353Z,20.70
2022-09-04T01:03:06.156Z,20.70
2022-09-04T01:05:40.129Z,20.70
2022-09-04T01:08:16.739Z,20.60
2022-09-04T01:11:07.903Z,20.60
2022-09-04T01:13:52.612Z,20.60
2022-09-04T01:16:37.293Z,20.50
2022-09-04T01:19:37.515Z,20.50
2022-09-04T01:22:22.970Z,20.50
2022-09-04T01:25:19.804Z,20.50
2022-09-04T01:28:03.386Z,20.40
2022-09-04T01:30:44.198Z,20.40
2022-09-04T01:33:33.306Z,20.40
2022-09-04T01:36:34.795Z,20.40
2022-09-04T01:39:02.154Z,20.30
2022-09-04T01:41:54.845Z,20.30
2022-09-04T01:44:22.674Z,20.30
2022-09-04T01:47:35.259Z,20.30
2022-09-04T01:50:15.883Z,20.20
2022-09-04T01:53:00.643Z,20.20
2022-09-04T01:55:58.436Z,20.20
2022-09-04T01:59:03.051Z,20.20
2022-09-04T02:01:59.311Z,20.20
2022-09-04T02:04:42.942Z,20.20
2022-09-04T02:07:27.775Z,20.30
2022-09-04T02:10:08.183Z,20.10
2022-09-04T02:12:52.027Z,20.10
2022-09-04T02:16:00.628Z,20.10
2022-09-04T02:18:48.982Z,20.10
2022-09-04T02:21:43.537Z,20.00
2022-09-04T02:24:26.363Z,20.00
2022-09-04T02:27:00.332Z,20.00
2022-09-04T02:29:39.103Z,20.00
2022-09-04T02:32:13.456Z,20.00
2022-09-04T02:35:00.182Z,19.90
2022-09-04T02:37:49.836Z,19.90
2022-09-04T02:40:19.341Z,19.90
2022-09-04T02:43:05.385Z,19.90
2022-09-04T02:46:27.525Z,19.80
2022-09-04T02:49:19.035Z,19.80
2022-09-04T02:52:09.169Z,19.80
2022-09-04T02:55:01.570Z,19.80
2022-09-04T02:57:50.308Z,19.70
2022-09-04T03:00:21.531Z,19.70
2022-09-04T03:02:58.028Z,19.70
2022-09-04T03:05:29.985Z,19.70
2022-09-04T03:08:13.084Z,19.70
2022-09-04T03:10:46.031Z,19.70
2022-09-04T03:13:46.656Z,19.70
2022-09-04T03:16:27.376Z,19.70
2022-09-04T03:19:08.671Z,19.70
2022-09-04T03:21:45.921Z,19.60
2022-09-04T03:24:38.626Z,19.60
2022-09-04T03:27:09.333Z,19.60
2022-09-04T03:29:51.200Z,19.70
2022-09-04T03:32:33.868Z,19.60
2022-09-04T03:35:38.220Z,19.60
2022-09-04T03:38:29.981Z,19.70
2022-09-04T03:41:35.094Z,19.60
2022-09-04T03:44:27.649Z,19.60
2022-09-04T03:47:27.672Z,19.60
2022-09-04T03:50:24.208Z,19.60
2022-09-04T03:53:12.984Z,19.60
2022-09-04T03:56:04.256Z,19.60
2022-09-04T03:58:46.573Z,19.60
2022-09-04T04:01:13.422Z,19.60
2022-09-04T04:03:55.164Z,19.60
2022-09-04T04:06:58.646Z,19.60
2022-09-04T04:09:43.989Z,19.60
2022-09-04T04:12:39.225Z,19.60
2022-09-04T04:15:27.734Z,19.50
2022-09-04T04:18:34.797Z,19.60
2022-09-04T04:21:18.968Z,19.50
2022-09-04T04:24:05.044Z,19.50
2022-09-04T04:26:38.236Z,19.50
2022-09-04T04:29:37.868Z,19.50
2022-09-04T04:32:32.567Z,19.50
2022-09-04T04:35:25.005Z,19.50
2022-09-04T04:38:24.725Z,19.50
2022-09-04T04:41:04.513Z,19.50
2022-09-04T04:43:50.033Z,19.50
2022-09-04T04:46:44.762Z,19.50
2022-09-04T04:49:49.018Z,19.40
2022-09-04T04:52:42.085Z,19.40
2022-09-04T04:55:11.745Z,19.40
2022-09-04T04:58:03.649Z,19.40
2022-09-04T05:00:58.137Z,19.40
2022-09-04T05:03:53.932Z,19.30
2022-09-04T05:06:41.058Z,19.30
2022-09-04T05:09:44.786Z,19.30
2022-09-04T05:12:28.038Z,19.30
2022-09-04T05:15:01.903Z,19.20
2022-09-04T05:18:08.638Z,19.20
2022-09-04T05:20:54.002Z,19.20
2022-09-04T05:23:36.989Z,19.20
2022-09-04T05:26:27.849Z,19.20
2022-09-04T05:29:10.652Z,19.20
2022-09-04T05:31:56.363Z,19.20
2022-09-04T05:34:53.564Z,19.20
2022-09-04T05:37:44.619Z,19.20
2022-09-04T05:40:47.288Z,19.20
2022-09-04T05:43:30.376Z,19.20
2022-09-04T05:46:06.237Z,19.30
2022-09-04T05:49:00.114Z,19.30
2022-09-04T05:51:40.814Z,19.30
2022-09-04T05:54:38.894Z,19.40
2022-09-04T05:57:24.239Z,19.40
2022-09-04T06:00:06.535Z,19.40
2022-09-04T06:02:53.909Z,19.50
2022-09-04T06:05:43.233Z,19.50
2022-09-04T06:08:52.143Z,19.60
2022-09-04T06:11:39.819Z,19.60
2022-09-04T06:14:24.912Z,19.70
2022-09-04T06:16:57.450Z,19.70
2022-09-04T06:20:02.434Z,19.80
2022-09-04T06:22:42.962Z,19.80
2022-09-04T06:25:18.908Z,19.90
2022-09-04T06:28:00.363Z,19.90
2022-09-04T06:30:42.825Z,20.00
2022-09-04T06:33:35.369Z,20.10
2022-09-04T06:36:23.547Z,20.20
2022-09-04T06:39:12.385Z,20.20
2022-09-04T06:41:50.133Z,20.40
2022-09-04T06:44:36.690Z,20.40
2022-09-04T06:47:27.532Z,20.60
2022-09-04T06:50:07.560Z,20.70
2022-09-04T06:52:46.026Z,20.80
2022-09-04T06:55:45.656Z,20.90
2022-09-04T06:58:49.026Z,21.10
2022-09-04T07:01:40.256Z,21.20
2022-09-04T07:04:09.851Z,21.40
2022-09-04T07:06:56.230Z,21.60
2022-09-04T07:09:35.296Z,21.70
2022-09-04T07:12:23.640Z,21.90
2022-09-04T07:15:27.329Z,22.20
2022-09-04T07:18:19.665Z,22.50
2022-09-04T07:21:17.705Z,22.80
2022-09-04T07:24:01.121Z,23.20
2022-09-04T07:26:53.187Z,23.60
2022-09-04T07:29:41.627Z,24.00
2022-09-04T07:32:23.367Z,24.50
2022-09-04T07:34:59.276Z,24.90
2022-09-04T07:37:59.761Z,25.40
2022-09-04T07:40:47.374Z,25.80
2022-09-04T07:43:36.425Z,26.30
2022-09-04T07:46:21.048Z,26.70
2022-09-04T07:49:15.427Z,27.00
2022-09-04T07:52:01.625Z,27.50
2022-09-04T07:54:53.869Z,27.80
2022-09-04T07:58:03.772Z,28.20
2022-09-04T08:01:08.071Z,28.60
2022-09-04T08:03:54.491Z,29.00
2022-09-04T08:06:27.379Z,29.40
2022-09-04T08:09:14.237Z,29.70
2022-09-04T08:12:04.803Z,30.10
2022-09-04T08:14:37.601Z,30.50
2022-09-04T08:17:52.935Z,30.90
2022-09-04T08:20:43.079Z,31.30
2022-09-04T08:23:20.528Z,31.70
2022-09-04T08:26:22.546Z,32.10
2022-09-04T08:29:14.551Z,32.50
2022-09-04T08:32:20.567Z,32.90
2022-09-04T08:34:58.177Z,33.30
2022-09-04T08:37:28.242Z,33.70
2022-09-04T08:39:54.985Z,34.00
2022-09-04T08:42:40.715Z,34.30
2022-09-04T08:45:42.328Z,34.60
2022-09-04T08:48:25.799Z,34.90
2022-09-04T08:51:07.577Z,35.30
2022-09-04T08:54:02.459Z,35.50
2022-09-04T08:56:29.108Z,35.80
2022-09-04T08:59:14.362Z,36.00
2022-09-04T09:02:03.393Z,36.20
2022-09-04T09:04:57.116Z,36.30
2022-09-04T09:08:02.110Z,36.50
2022-09-04T09:10:43.458Z,36.60
2022-09-04T09:13:10.074Z,36.60
2022-09-04T09:15:59.094Z,36.70
2022-09-04T09:18:37.215Z,36.70
2022-09-04T09:21:23.590Z,36.80
2022-09-04T09:24:15.410Z,36.90
2022-09-04T09:27:13.079Z,36.90
2022-09-04T09:29:48.503Z,36.90
2022-09-04T09:32:34.325Z,37.00
2022-09-04T09:35:09.915Z,37.10
2022-09-04T09:37:45.531Z,37.20
2022-09-04T09:41:03.259Z,37.30
2022-09-04T09:44:00.855Z,37.40
2022-09-04T09:47:05.027Z,37.60
2022-09-04T09:50:07.049Z,37.80
2022-09-04T09:52:42.936Z,37.90
2022-09-04T09:55:40.169Z,38.10
2022-09-04T09:58:58.168Z,38.20
2022-09-04T10:01:24.845Z,38.40
2022-09-04T10:04:16.091Z,38.60
2022-09-04T10:07:14.010Z,38.70
2022-09-04T10:10:07.378Z,38.80
2022-09-04T10:12:51.730Z,39.00
2022-09-04T10:15:50.301Z,39.10
2022-09-04T10:18:48.030Z,39.20
2022-09-04T10:21:29.970Z,39.30
2022-09-04T10:24:26.016Z,39.30
2022-09-04T10:27:26.281Z,39.30
2022-09-04T10:30:15.819Z,39.30
2022-09-04T10:32:51.575Z,39.30
2022-09-04T10:35:22.189Z,39.30
2022-09-04T10:38:18.883Z,39.30
2022-09-04T10:41:08.909Z,39.20
2022-09-04T10:43:54.309Z,39.00
2022-09-04T10:46:39.693Z,38.90
2022-09-04T10:49:12.661Z,38.70
2022-09-04T10:51:52.029Z,38.50
2022-09-04T10:54:59.616Z,38.30
2022-09-04T10:57:48.105Z,38.00
2022-09-04T11:00:26.680Z,37.80
2022-09-04T11:03:23.300Z,37.50
2022-09-04T11:06:08.635Z,37.30
2022-09-04T11:08:49.420Z,37.00
2022-09-04T11:11:35.508Z,36.80
2022-09-04T11:14:25.559Z,36.60
2022-09-04T11:17:11.424Z,36.40
2022-09-04T11:20:16.151Z,36.10
2022-09-04T11:23:12.160Z,36.00
2022-09-04T11:26:05.982Z,35.90
2022-09-04T11:29:17.925Z,35.70
2022-09-04T11:32:02.374Z,35.60
2022-09-04T11:34:57.089Z,35.40
2022-09-04T11:37:57.789Z,35.40
2022-09-04T11:40:27.494Z,35.20
2022-09-04T11:43:20.872Z,35.20
2022-09-04T11:46:02.053Z,35.10
2022-09-04T11:48:46.310Z,35.00
2022-09-04T11:52:06.449Z,34.90
2022-09-04T11:55:04.042Z,34.80
2022-09-04T11:57:52.307Z,34.80
2022-09-04T12:00:19.671Z,34.70
2022-09-04T12:03:26.315Z,34.60
2022-09-04T12:06:20.976Z,34.50
2022-09-04T12:09:06.685Z,34.50
2022-09-04T12:11:56.433Z,34.40
2022-09-04T12:14:44.389Z,34.30
2022-09-04T12:17:17.203Z,34.20
2022-09-04T12:20:07.710Z,34.10
2022-09-04T12:23:03.701Z,34.10
2022-09-04T12:25:46.011Z,34.00
2022-09-04T12:28:43.483Z,33.90
2022-09-04T12:31:34.890Z,33.80
2022-09-04T12:34:10.362Z,33.80
2022-09-04T12:37:14.726Z,33.80
2022-09-04T12:40:02.702Z,33.80
2022-09-04T12:43:00.607Z,33.80
2022-09-04T12:45:59.598Z,33.80
2022-09-04T12:48:49.642Z,33.80
2022-09-04T12:51:21.144Z,33.80
2022-09-04T12:54:15.950Z,33.70
2022-09-04T12:57:11.550Z,33.70
2022-09-04T12:59:41.628Z,33.70
2022-09-04T13:02:19.567Z,33.60
2022-09-04T13:04:49.390Z,33.60
2022-09-04T13:07:44.235Z,33.50
2022-09-04T13:10:37.060Z,33.50
2022-09-04T13:13:15.665Z,33.50
2022-09-04T13:16:03.869Z,33.50
2022-09-04T13:18:36.906Z,33.40
2022-09-04T13:21:17.126Z,33.40
2022-09-04T13:24:02.481Z,33.40
2022-09-04T13:26:52.297Z,33.40
2022-09-04T13:29:54.501Z,33.40
2022-09-04T13:32:38.647Z,33.40
2022-09-04T13:35:24.893Z,33.40
2022-09-04T13:37:54.353Z,33.40
2022-09-04T13:40:40.988Z,33.40
2022-09-04T13:43:30.577Z,33.40
2022-09-04T13:46:05.329Z,33.30
2022-09-04T13:48:45.709Z,33.30
2022-09-04T13:51:18.191Z,33.30
2022-09-04T13:53:56.644Z,33.30
2022-09-04T13:56:32.528Z,33.30
2022-09-04T13:59:09.319Z,33.20
2022-09-04T14:01:46.044Z,33.20
2022-09-04T14:04:26.478Z,33.10
2022-09-04T14:07:02.287Z,33.10
2022-09-04T14:09:32.073Z,33.00
2022-09-04T14:12:30.084Z,32.90
2022-09-04T14:15:02.991Z,32.90
2022-09-04T14:17:44.599Z,32.70
2022-09-04T14:20:22.653Z,32.50
2022-09-04T14:23:20.218Z,32.60
2022-09-04T14:25:59.370Z,32.40
2022-09-04T14:29:00.768Z,32.40
2022-09-04T14:31:38.351Z,32.30
2022-09-04T14:34:28.253Z,32.20
2022-09-04T14:37:24.153Z,32.10
2022-09-04T14:40:19.784Z,32.10
2022-09-04T14:43:10.635Z,32.00
2022-09-04T14:46:02.450Z,32.00
2022-09-04T14:48:37.102Z,31.90
2022-09-04T14:51:12.192Z,31.90
2022-09-04T14:53:48.113Z,31.90
2022-09-04T14:56:28.169Z,31.80
2022-09-04T14:59:32.694Z,31.80
2022-09-04T15:02:08.231Z,31.80
2022-09-04T15:05:02.895Z,31.70
2022-09-04T15:07:50.304Z,31.70
2022-09-04T15:10:49.723Z,31.70
2022-09-04T15:13:28.424Z,31.70
2022-09-04T15:16:10.623Z,31.70
2022-09-04T15:18:51.580Z,31.70
2022-09-04T15:21:22.884Z,31.70
2022-09-04T15:23:58.432Z,31.70
2022-09-04T15:26:42.352Z,31.60
2022-09-04T15:29:22.815Z,31.60
2022-09-04T15:31:59.635Z,31.70
2022-09-04T15:34:27.475Z,31.60
2022-09-04T15:36:54.703Z,31.60
2022-09-04T15:39:58.028Z,31.50
2022-09-04T15:42:46.862Z,31.60
2022-09-04T15:45:41.347Z,31.50
2022-09-04T15:48:22.802Z,31.60
2022-09-04T15:51:20.340Z,31.60
2022-09-04T15:53:53.838Z,31.50
2022-09-04T15:56:20.427Z,31.50
2022-09-04T15:58:56.261Z,31.50
2022-09-04T16:01:27.372Z,31.60
2022-09-04T16:04:14.238Z,31.60
2022-09-04T16:06:47.882Z,31.60
2022-09-04T16:09:33.313Z,31.50
2022-09-04T16:12:20.869Z,31.50
2022-09-04T16:14:53.222Z,31.50
2022-09-04T16:17:33.314Z,31.50
2022-09-04T16:20:12.084Z,31.50
2022-09-04T16:22:58.339Z,31.50
2022-09-04T16:25:31.720Z,31.50
2022-09-04T16:28:15.822Z,31.50
2022-09-04T16:30:56.858Z,31.50
2022-09-04T16:33:34.758Z,31.50
2022-09-04T16:36:11.244Z,31.40
2022-09-04T16:38:57.237Z,31.40
2022-09-04T16:41:37.430Z,31.40
2022-09-04T16:44:21.233Z,31.40
2022-09-04T16:47:11.259Z,31.40
2022-09-04T16:49:55.804Z,31.30
2022-09-04T16:52:45.407Z,31.30
2022-09-04T16:55:25.371Z,31.30
2022-09-04T16:58:07.132Z,31.20
2022-09-04T17:01:14.300Z,31.20
2022-09-04T17:04:14.550Z,31.20
2022-09-04T17:07:02.904Z,31.10
2022-09-04T17:09:34.636Z,31.10
2022-09-04T17:12:25.010Z,31.10
2022-09-04T17:15:01.433Z,31.00
2022-09-04T17:17:30.841Z,31.00
2022-09-04T17:20:12.332Z,30.90
2022-09-04T17:28:56.730Z,30.90
2022-09-04T17:29:19.381Z,30.90
2022-09-04T17:29:34.654Z,30.80
2022-09-04T17:32:01.327Z,30.70
2022-09-04T17:40:36.359Z,30.70
2022-09-04T17:40:40.957Z,30.70
2022-09-04T17:41:38.135Z,30.60
2022-09-04T17:44:31.702Z,30.50
2022-09-04T17:47:31.446Z,30.50
2022-09-04T17:49:59.211Z,30.40
2022-09-04T17:52:32.869Z,30.30
2022-09-04T17:55:11.175Z,30.20
2022-09-04T17:58:00.825Z,30.10
2022-09-04T18:00:38.325Z,30.10
2022-09-04T18:03:27.083Z,30.00
2022-09-04T18:06:03.606Z,30.00
2022-09-04T18:08:52.503Z,29.90
2022-09-04T18:11:36.631Z,29.80
2022-09-04T18:14:11.910Z,29.80
2022-09-04T18:17:13.434Z,29.70
2022-09-04T18:19:44.922Z,29.60
2022-09-04T18:22:49.723Z,29.50
2022-09-04T18:25:24.327Z,29.40
2022-09-04T18:28:06.395Z,29.40
2022-09-04T18:37:07.327Z,29.30
2022-09-04T18:37:26.208Z,29.20
2022-09-04T18:37:45.633Z,29.20
2022-09-04T18:40:42.998Z,29.10
2022-09-04T18:49:00.341Z,29.00
2022-09-04T18:50:45.517Z,29.00
2022-09-04T18:50:46.885Z,28.90
2022-09-04T18:51:58.063Z,28.80
2022-09-04T18:54:28.086Z,28.70
2022-09-04T18:57:01.844Z,28.70
2022-09-04T18:59:42.281Z,28.60
2022-09-04T19:02:29.145Z,28.50
2022-09-04T19:05:12.883Z,28.50
2022-09-04T19:07:52.804Z,28.40
2022-09-04T19:10:22.391Z,28.40
2022-09-04T19:12:56.033Z,28.40
2022-09-04T19:15:36.235Z,28.30
2022-09-04T19:18:43.454Z,28.30
2022-09-04T19:21:12.133Z,28.30
2022-09-04T19:23:50.882Z,28.20
2022-09-04T19:26:42.170Z,28.20
2022-09-04T19:29:11.978Z,28.20
2022-09-04T19:31:56.715Z,28.10
2022-09-04T19:34:45.578Z,28.10
2022-09-04T19:38:34.020Z,28.10
2022-09-04T19:45:58.993Z,28.00
2022-09-04T19:46:00.639Z,28.20
2022-09-04T19:46:48.996Z,28.00
2022-09-04T19:51:13.498Z,27.90
2022-09-04T19:53:33.981Z,27.90
2022-09-04T19:55:47.473Z,27.90
2022-09-04T19:58:51.526Z,27.80
2022-09-04T20:01:25.626Z,27.80
2022-09-04T20:03:59.122Z,27.80
2022-09-04T20:06:35.269Z,27.70
2022-09-04T20:09:28.988Z,27.70
2022-09-04T20:12:25.540Z,27.70
2022-09-04T20:15:07.553Z,27.60
2022-09-04T20:17:46.413Z,27.60
2022-09-04T20:20:22.991Z,27.60
2022-09-04T20:23:44.132Z,27.60
2022-09-04T20:26:06.563Z,27.50
2022-09-04T20:28:48.670Z,27.50
2022-09-04T20:31:40.056Z,27.50
2022-09-04T20:34:42.104Z,27.50
2022-09-04T20:37:19.193Z,27.40
2022-09-04T20:40:01.148Z,27.40
2022-09-04T20:42:34.852Z,27.40
2022-09-04T20:46:51.374Z,27.30
2022-09-04T20:52:44.634Z,27.30
2022-09-04T20:52:59.184Z,27.20
2022-09-04T20:54:10.479Z,27.20
2022-09-04T20:58:28.221Z,27.10
2022-09-04T21:03:14.434Z,27.10
2022-09-04T21:03:35.589Z,27.10
2022-09-04T21:06:25.489Z,27.00
2022-09-04T21:09:00.676Z,27.00
2022-09-04T21:11:58.917Z,26.90
2022-09-04T21:14:45.218Z,26.80
2022-09-04T21:17:34.301Z,26.80
2022-09-04T21:20:51.904Z,26.80
2022-09-04T21:23:57.883Z,26.70
2022-09-04T21:26:51.572Z,26.60
2022-09-04T21:30:04.032Z,26.60
2022-09-04T21:32:47.297Z,26.50
2022-09-04T21:35:48.632Z,26.50
2022-09-04T21:38:44.216Z,26.40
2022-09-04T21:41:36.704Z,26.40
2022-09-04T21:44:09.088Z,26.30
2022-09-04T21:47:01.882Z,26.30
2022-09-04T21:49:44.660Z,26.30
2022-09-04T21:52:19.823Z,26.20
2022-09-04T21:57:05.529Z,26.10
2022-09-04T22:02:32.303Z,26.10
2022-09-04T22:02:35.904Z,26.00
2022-09-04T22:04:08.774Z,26.00
2022-09-04T22:12:57.353Z,25.90
2022-09-04T22:13:34.731Z,25.90
2022-09-04T22:13:43.201Z,25.80
2022-09-04T22:16:16.455Z,25.80
2022-09-04T22:19:16.640Z,25.70
2022-09-04T22:22:05.318Z,25.70
2022-09-04T22:24:46.590Z,25.60
2022-09-04T22:28:07.664Z,25.60
2022-09-04T22:30:59.174Z,25.50
2022-09-04T22:34:15.173Z,25.50
2022-09-04T22:37:12.635Z,25.40
2022-09-04T22:40:04.216Z,25.50
2022-09-04T22:42:41.211Z,25.40
2022-09-04T22:45:22.823Z,25.30
2022-09-04T22:48:11.068Z,25.30
2022-09-04T22:51:17.690Z,25.20
2022-09-04T22:53:59.627Z,25.20
2022-09-04T22:56:45.280Z,25.20
2022-09-04T22:59:54.270Z,25.10
2022-09-04T23:02:54.223Z,25.10
2022-09-04T23:05:28.330Z,25.00
2022-09-04T23:13:44.173Z,25.00
2022-09-04T23:14:00.387Z,25.00
2022-09-04T23:14:20.073Z,25.00
2022-09-04T23:16:56.421Z,25.00
2022-09-04T23:24:53.474Z,24.90
2022-09-04T23:26:48.242Z,24.90
2022-09-04T23:26:50.178Z,24.90
2022-09-04T23:28:55.605Z,24.90
2022-09-04T23:32:07.274Z,24.80
2022-09-04T23:35:14.935Z,24.80
2022-09-04T23:38:00.507Z,24.80
2022-09-04T23:40:39.039Z,24.70
2022-09-04T23:43:20.201Z,24.70
2022-09-04T23:46:28.710Z,24.70
2022-09-04T23:49:18.939Z,24.60
2022-09-04T23:52:04.833Z,24.60
2022-09-04T23:55:03.213Z,24.50
2022-09-04T23:57:36.256Z,24.50
